Hauptseite
METAR-TAF:

METAR-TAF

Flughäfen :

Fliegerhorst Nörvenich

Nörvenich, Deutschland

Breite: 50-50N, Länge: 006-40E, Höhe: 118 m

Beobachtung

Neuester Wetterbericht von vor 40 Minuten, um 15:20 UTC
Wind 5 kt aus Ost
Temperatur 28°C
Luftfeuchtigkeit 27%
Luftdruck 1023 hPa
Sichtweite 10 km oder mehr
Aufgelockert bewölkt in der Höhe von 34000 ft

METAR: ETNN 231520Z 09005KT 9999 SCT340 28/07 Q1023 BLU+

Zeit: 18:00 (16:00 UTC)

Prognose

Neuester Wetterbericht von vor 8 Stunden und 57 Minuten, um 07:03 UTC
Gültige Prognose vom 23 um 08 UTC bis 23 um 17 UTC
Wind 3 kt aus unterschiedlichen Richtungen
Sichtweite 10 km oder mehr
Leicht bewölkt in der Höhe von 35000 ft

TAF: ETNN 230703Z 2308/2317 VRB03KT 9999 NSW FEW350 BY ETGL

Wetterbeobachtungen und Prognosen von mehr als 4000 Flughäfen (METAR und TAF Bericht).

Die verfügbaren Stationen werden durch gelbe und rote Markierungen auf der Karte dargestellt.

Führen Sie die Maus auf sie, um den Namen der Station zu sehen.

Darauf klicken, um die Beobachtung von Wetterbeobachtungen und Prognosen zu sehen.

Um die Karte zu ändern : klicken Sie auf den grünen Tasten mit einem schwarzen Kreuz Zum Vergrößern, auf den grünen Button mit einem Gedankenstrich zu verkleinern, oder auf die grünen Pfeile für benachbarte Karten.


METAR-TAF: